createdAt,value
2016-06-06T08:40:08.933Z,1004.68
2016-06-06T08:41:08.967Z,1004.69
2016-06-06T08:42:08.986Z,1004.72
2016-06-06T08:43:09.005Z,1004.73
2016-06-06T08:44:09.022Z,1004.75
2016-06-06T08:45:09.056Z,1004.74
2016-06-06T08:46:09.074Z,1004.73
2016-06-06T08:47:09.093Z,1004.69
2016-06-06T08:48:09.127Z,1004.73
2016-06-06T08:49:09.146Z,1004.8
2016-06-06T08:50:09.163Z,1004.77
2016-06-06T08:51:09.197Z,1004.76
2016-06-06T08:52:09.216Z,1004.74
2016-06-06T08:53:09.234Z,1004.71
2016-06-06T08:54:09.252Z,1004.73
2016-06-06T08:55:09.287Z,1004.75
2016-06-06T08:56:09.304Z,1004.75
2016-06-06T08:57:09.338Z,1004.73
2016-06-06T08:58:09.356Z,1004.73
2016-06-06T08:59:09.391Z,1004.73
2016-06-06T09:00:09.409Z,1004.73
2016-06-06T09:01:09.428Z,1004.72
2016-06-06T09:02:09.462Z,1004.77
2016-06-06T09:03:09.479Z,1004.77
2016-06-06T09:04:09.498Z,1004.76
2016-06-06T09:05:09.532Z,1004.78
2016-06-06T09:06:09.566Z,1004.76
2016-06-06T09:07:09.569Z,1004.75
2016-06-06T09:08:09.602Z,1004.75
2016-06-06T09:09:09.621Z,1004.72
2016-06-06T09:10:09.639Z,1004.71
2016-06-06T09:11:09.673Z,1004.69
2016-06-06T09:12:09.708Z,1004.68
2016-06-06T09:13:09.725Z,1004.71
2016-06-06T09:14:09.744Z,1004.65
2016-06-06T09:15:09.761Z,1004.68
2016-06-06T09:16:09.796Z,1004.74
2016-06-06T09:17:09.814Z,1004.7
2016-06-06T09:18:09.849Z,1004.74
2016-06-06T09:19:09.866Z,1004.72
2016-06-06T09:20:09.885Z,1004.69
2016-06-06T09:21:09.919Z,1004.67
2016-06-06T09:22:09.937Z,1004.7
2016-06-06T09:23:09.955Z,1004.74
2016-06-06T09:24:09.990Z,1004.68
2016-06-06T09:25:10.023Z,1004.74
2016-06-06T09:26:10.041Z,1004.72
2016-06-06T09:27:10.060Z,1004.7
2016-06-06T09:28:10.079Z,1004.68
2016-06-06T09:29:10.112Z,1004.65
2016-06-06T09:30:10.131Z,1004.62
2016-06-06T09:31:10.148Z,1004.64
2016-06-06T09:32:10.182Z,1004.68
2016-06-06T09:33:10.201Z,1004.66
2016-06-06T09:34:10.235Z,1004.62
2016-06-06T09:35:10.254Z,1004.64
2016-06-06T09:36:10.272Z,1004.64
2016-06-06T09:37:10.306Z,1004.61
2016-06-06T09:38:10.323Z,1004.64
2016-06-06T09:39:10.358Z,1004.63
2016-06-06T09:40:10.376Z,1004.66
2016-06-06T09:41:10.395Z,1004.61
2016-06-06T09:42:10.428Z,1004.62
2016-06-06T09:43:10.447Z,1004.64
2016-06-06T09:44:10.668Z,1004.6
2016-06-06T09:45:10.500Z,1004.58
2016-06-06T09:46:10.533Z,1004.6
2016-06-06T09:47:10.552Z,1004.58
2016-06-06T09:48:10.569Z,1004.58
2016-06-06T09:49:10.603Z,1004.54
2016-06-06T09:50:10.621Z,1004.55
2016-06-06T09:51:10.655Z,1004.54
2016-06-06T09:52:10.674Z,1004.58
2016-06-06T09:53:10.708Z,1004.57
2016-06-06T09:54:10.727Z,1004.58
2016-06-06T09:55:10.744Z,1004.56
2016-06-06T09:56:10.763Z,1004.61
2016-06-06T09:57:10.797Z,1004.63
2016-06-06T09:58:10.815Z,1004.59
2016-06-06T09:59:10.849Z,1004.55
2016-06-06T10:00:10.868Z,1004.6
2016-06-06T10:01:10.886Z,1004.63
2016-06-06T10:02:10.920Z,1004.6
2016-06-06T10:03:10.938Z,1004.57
2016-06-06T10:04:10.956Z,1004.61
2016-06-06T10:05:10.990Z,1004.54
2016-06-06T10:06:11.009Z,1004.55
2016-06-06T10:07:11.043Z,1004.54
2016-06-06T10:08:11.061Z,1004.56
2016-06-06T10:09:11.095Z,1004.56
2016-06-06T10:10:11.113Z,1004.54
2016-06-06T10:11:11.132Z,1004.54
2016-06-06T10:12:11.165Z,1004.55
2016-06-06T10:13:11.183Z,1004.53
2016-06-06T10:14:11.218Z,1004.54
2016-06-06T10:15:11.236Z,1004.54
2016-06-06T10:16:11.255Z,1004.53
2016-06-06T10:17:11.288Z,1004.51
2016-06-06T10:18:11.306Z,1004.53
2016-06-06T10:19:11.341Z,1004.54
2016-06-06T10:20:11.359Z,1004.54
2016-06-06T10:21:11.377Z,1004.52
2016-06-06T10:22:11.411Z,1004.51
2016-06-06T10:23:11.430Z,1004.51
2016-06-06T10:24:11.463Z,1004.5
2016-06-06T10:25:11.482Z,1004.58
2016-06-06T10:26:11.516Z,1004.53
2016-06-06T10:27:11.534Z,1004.58
2016-06-06T10:28:11.567Z,1004.58
2016-06-06T10:29:11.618Z,1004.59
2016-06-06T10:30:11.604Z,1004.54
2016-06-06T10:31:11.638Z,1004.52
2016-06-06T10:32:11.672Z,1004.48
2016-06-06T10:33:11.690Z,1004.49
2016-06-06T10:34:11.724Z,1004.5
2016-06-06T10:35:11.727Z,1004.5
2016-06-06T10:36:11.761Z,1004.53
2016-06-06T10:37:11.779Z,1004.52
2016-06-06T10:38:11.813Z,1004.61
2016-06-06T10:39:11.832Z,1004.56
2016-06-06T10:40:11.865Z,1004.51
2016-06-06T10:41:11.884Z,1004.51
2016-06-06T10:42:11.917Z,1004.53
2016-06-06T10:43:11.936Z,1004.46
2016-06-06T10:44:12.392Z,1004.44
2016-06-06T10:45:11.989Z,1004.5
2016-06-06T10:46:12.006Z,1004.51
2016-06-06T10:47:12.041Z,1004.53
2016-06-06T10:48:12.059Z,1004.56
2016-06-06T10:49:12.093Z,1004.57
2016-06-06T10:50:12.111Z,1004.55
2016-06-06T10:51:12.130Z,1004.52
2016-06-06T10:52:12.164Z,1004.54
2016-06-06T10:53:12.182Z,1004.51
2016-06-06T10:54:12.216Z,1004.45
2016-06-06T10:55:12.250Z,1004.44
2016-06-06T10:56:12.268Z,1004.41
2016-06-06T10:57:12.286Z,1004.41
2016-06-06T10:58:12.320Z,1004.4
2016-06-06T10:59:12.338Z,1004.4
2016-06-06T11:00:12.373Z,1004.42
2016-06-06T11:01:12.391Z,1004.44
2016-06-06T11:02:12.409Z,1004.48
2016-06-06T11:03:12.443Z,1004.47
2016-06-06T11:04:12.477Z,1004.39
2016-06-06T11:05:12.496Z,1004.47
2016-06-06T11:06:12.530Z,1004.43
2016-06-06T11:07:12.548Z,1004.47
2016-06-06T11:08:12.565Z,1004.41
2016-06-06T11:09:12.600Z,1004.44
2016-06-06T11:10:12.634Z,1004.41
2016-06-06T11:11:12.653Z,1004.35
2016-06-06T11:12:12.670Z,1004.37
2016-06-06T11:13:12.704Z,1004.35
2016-06-06T11:14:12.723Z,1004.34
2016-06-06T11:15:12.756Z,1004.32
2016-06-06T11:16:12.775Z,1004.36
2016-06-06T11:17:12.808Z,1004.33
2016-06-06T11:18:12.828Z,1004.36
2016-06-06T11:19:12.861Z,1004.28
2016-06-06T11:20:12.880Z,1004.27
2016-06-06T11:21:12.914Z,1004.29
2016-06-06T11:22:12.932Z,1004.23
2016-06-06T11:23:12.966Z,1004.32
2016-06-06T11:24:12.984Z,1004.24
2016-06-06T11:25:13.002Z,1004.24
2016-06-06T11:26:13.036Z,1004.19
2016-06-06T11:27:13.071Z,1004.2
2016-06-06T11:28:13.088Z,1004.24
2016-06-06T11:29:13.122Z,1004.19
2016-06-06T11:30:13.141Z,1004.2
2016-06-06T11:31:13.174Z,1004.18
2016-06-06T11:32:13.193Z,1004.17
2016-06-06T11:33:13.212Z,1004.2
2016-06-06T11:34:13.245Z,1004.17
2016-06-06T11:35:13.263Z,1004.27
2016-06-06T11:36:13.298Z,1004.25
2016-06-06T11:37:13.316Z,1004.22
2016-06-06T11:38:13.350Z,1004.22
2016-06-06T11:39:13.368Z,1004.24
2016-06-06T11:40:13.386Z,1004.26
2016-06-06T11:41:13.420Z,1004.29
2016-06-06T11:42:13.439Z,1004.3
2016-06-06T11:43:13.473Z,1004.33
2016-06-06T11:44:13.506Z,1004.32
2016-06-06T11:45:13.525Z,1004.32
2016-06-06T11:46:13.559Z,1004.28
2016-06-06T11:47:13.577Z,1004.28
2016-06-06T11:48:13.611Z,1004.27
2016-06-06T11:49:13.630Z,1004.25
2016-06-06T11:50:13.664Z,1004.25
2016-06-06T11:51:13.681Z,1004.3
2016-06-06T11:52:13.716Z,1004.31
2016-06-06T11:53:13.734Z,1004.34
2016-06-06T11:54:13.768Z,1004.32
2016-06-06T11:55:13.786Z,1004.32
2016-06-06T11:56:13.820Z,1004.34
2016-06-06T11:57:13.838Z,1004.33
2016-06-06T11:58:13.872Z,1004.39
2016-06-06T11:59:13.890Z,1004.43
2016-06-06T12:00:13.925Z,1004.43
2016-06-06T12:01:13.958Z,1004.43
2016-06-06T12:02:13.976Z,1004.42
2016-06-06T12:03:13.996Z,1004.36
2016-06-06T12:04:14.030Z,1004.29
2016-06-06T12:05:14.048Z,1004.3
2016-06-06T12:06:14.081Z,1004.29
2016-06-06T12:07:14.116Z,1004.26
2016-06-06T12:08:14.134Z,1004.3
2016-06-06T12:09:14.151Z,1004.3
2016-06-06T12:10:14.187Z,1004.25
2016-06-06T12:11:14.220Z,1004.24
2016-06-06T12:12:14.238Z,1004.26
2016-06-06T12:13:14.273Z,1004.22
2016-06-06T12:14:14.572Z,1004.27
2016-06-06T12:15:15.106Z,1004.17
2016-06-06T12:16:14.343Z,1004.24
2016-06-06T12:17:14.376Z,1004.34
2016-06-06T12:18:14.411Z,1004.27
2016-06-06T12:19:14.429Z,1004.33
2016-06-06T12:20:14.463Z,1004.26
2016-06-06T12:21:14.497Z,1004.39
2016-06-06T12:22:14.515Z,1004.24
2016-06-06T12:23:14.533Z,1004.26
2016-06-06T12:24:14.567Z,1004.22
2016-06-06T12:25:14.601Z,1004.19
2016-06-06T12:26:14.619Z,1004.07
2016-06-06T12:27:14.638Z,1004.07
2016-06-06T12:28:14.671Z,1004.01
2016-06-06T12:29:14.955Z,1004.01
2016-06-06T12:30:14.724Z,1004.06
2016-06-06T12:31:14.743Z,1004.04
2016-06-06T12:32:14.777Z,1003.96
2016-06-06T12:33:14.794Z,1003.9
2016-06-06T12:34:14.828Z,1003.88
2016-06-06T12:35:14.863Z,1003.95
2016-06-06T12:36:14.881Z,1003.94
2016-06-06T12:37:14.899Z,1003.96
2016-06-06T12:38:14.932Z,1004.02
2016-06-06T12:39:14.967Z,1003.97
2016-06-06T12:40:14.985Z,1003.96
2016-06-06T12:41:15.004Z,1003.96
2016-06-06T12:42:15.037Z,1003.95
2016-06-06T12:43:15.057Z,1003.96
2016-06-06T12:44:15.090Z,1003.89
2016-06-06T12:45:15.108Z,1003.9
2016-06-06T12:46:15.126Z,1003.94
2016-06-06T12:47:15.161Z,1003.92
2016-06-06T12:48:15.179Z,1003.98
2016-06-06T12:49:15.212Z,1004
2016-06-06T12:50:15.231Z,1003.98
2016-06-06T12:51:15.265Z,1003.99
2016-06-06T12:52:15.299Z,1004.03
2016-06-06T12:53:15.317Z,1003.97
2016-06-06T12:54:15.336Z,1004
2016-06-06T12:55:15.370Z,1004
2016-06-06T12:56:15.388Z,1003.97
2016-06-06T12:57:15.405Z,1003.97
2016-06-06T12:58:15.440Z,1003.96
2016-06-06T12:59:15.786Z,1003.92
2016-06-06T13:00:15.492Z,1003.94
2016-06-06T13:01:15.511Z,1003.9
2016-06-06T13:02:15.544Z,1003.89
2016-06-06T13:03:15.563Z,1003.89
2016-06-06T13:04:15.596Z,1003.9
2016-06-06T13:05:15.616Z,1003.93
2016-06-06T13:06:15.649Z,1003.94
2016-06-06T13:07:15.667Z,1003.93
2016-06-06T13:08:15.702Z,1003.94
2016-06-06T13:09:15.720Z,1003.91
2016-06-06T13:10:15.754Z,1003.95
2016-06-06T13:11:15.771Z,1003.92
2016-06-06T13:12:15.790Z,1003.92
2016-06-06T13:13:15.824Z,1003.93
2016-06-06T13:14:15.859Z,1003.97
2016-06-06T13:15:15.986Z,1003.98
2016-06-06T13:16:15.895Z,1003.97
2016-06-06T13:17:15.912Z,1004.03
2016-06-06T13:18:15.947Z,1004.02
2016-06-06T13:19:15.981Z,1003.99
2016-06-06T13:20:16.000Z,1003.93
2016-06-06T13:21:16.017Z,1003.95
2016-06-06T13:22:16.051Z,1003.95
2016-06-06T13:23:16.070Z,1003.91
2016-06-06T13:24:16.103Z,1003.92
2016-06-06T13:25:16.138Z,1003.87
2016-06-06T13:26:16.156Z,1003.89
2016-06-06T13:28:16.205Z,1003.86
2016-06-06T13:29:16.242Z,1003.9
2016-06-06T13:30:16.260Z,1003.93
2016-06-06T13:31:16.294Z,1003.96
2016-06-06T13:32:16.313Z,1003.96
2016-06-06T13:33:16.346Z,1003.94
2016-06-06T13:34:16.365Z,1003.98
2016-06-06T13:35:16.383Z,1003.95
2016-06-06T13:36:16.418Z,1003.94
2016-06-06T13:37:16.435Z,1003.94
2016-06-06T13:38:16.469Z,1003.96
2016-06-06T13:39:16.504Z,1003.93
2016-06-06T13:40:16.521Z,1003.97
2016-06-06T13:41:16.540Z,1003.97
2016-06-06T13:42:16.573Z,1003.95
2016-06-06T13:43:16.608Z,1003.96
2016-06-06T13:44:16.752Z,1003.96
2016-06-06T13:45:16.645Z,1003.97
2016-06-06T13:46:16.678Z,1003.96
2016-06-06T13:47:16.698Z,1003.9
2016-06-06T13:48:16.731Z,1003.96
2016-06-06T13:49:16.748Z,1003.95
2016-06-06T13:50:16.783Z,1003.87
2016-06-06T13:51:16.801Z,1003.85
2016-06-06T13:52:16.836Z,1003.87
2016-06-06T13:53:16.853Z,1003.89
2016-06-06T13:54:16.887Z,1003.92
2016-06-06T13:55:16.906Z,1003.99
2016-06-06T13:56:16.939Z,1003.96
2016-06-06T13:57:16.958Z,1003.94
2016-06-06T13:58:16.991Z,1003.92
2016-06-06T14:00:17.669Z,1003.85
2016-06-06T14:01:17.060Z,1003.82
2016-06-06T14:02:17.094Z,1003.82
2016-06-06T14:03:17.113Z,1003.85
2016-06-06T14:04:17.146Z,1003.8
2016-06-06T14:05:17.164Z,1003.8
2016-06-06T14:06:17.199Z,1003.77
2016-06-06T14:08:17.251Z,1003.8
2016-06-06T14:09:17.285Z,1003.81
2016-06-06T14:10:17.334Z,1003.79
2016-06-06T14:11:17.337Z,1003.83
2016-06-06T14:12:17.355Z,1003.79
2016-06-06T14:13:17.390Z,1003.78
2016-06-06T14:14:17.423Z,1003.83
2016-06-06T14:15:17.551Z,1003.82
2016-06-06T14:16:17.460Z,1003.79
2016-06-06T14:17:17.494Z,1003.76
2016-06-06T14:18:17.528Z,1003.83
2016-06-06T14:19:17.545Z,1003.82
2016-06-06T14:20:17.579Z,1003.84
2016-06-06T14:21:17.598Z,1003.86
2016-06-06T14:22:17.631Z,1003.88
2016-06-06T14:23:17.650Z,1003.86
2016-06-06T14:24:17.684Z,1003.9
2016-06-06T14:25:17.703Z,1003.88
2016-06-06T14:26:17.737Z,1003.86
2016-06-06T14:27:17.770Z,1003.91
2016-06-06T14:28:17.788Z,1003.94
2016-06-06T14:29:18.011Z,1003.91
2016-06-06T14:30:17.856Z,1003.9
2016-06-06T14:31:17.874Z,1003.93
2016-06-06T14:32:17.909Z,1003.91
2016-06-06T14:33:17.927Z,1003.94
2016-06-06T14:34:17.946Z,1003.93
2016-06-06T14:35:17.979Z,1003.98
2016-06-06T14:36:17.997Z,1003.93
2016-06-06T14:37:18.032Z,1003.93
2016-06-06T14:38:18.066Z,1003.97
2016-06-06T14:39:18.084Z,1004.01
2016-06-06T14:40:18.103Z,1004.02
2016-06-06T14:41:18.136Z,1004.03
2016-06-06T14:42:18.170Z,1003.97
2016-06-06T14:43:18.188Z,1003.98
2016-06-06T14:44:18.223Z,1003.95
2016-06-06T14:45:18.241Z,1003.97
2016-06-06T14:46:18.274Z,1003.95
2016-06-06T14:47:18.293Z,1003.94
2016-06-06T14:48:18.326Z,1003.91
2016-06-06T14:49:18.346Z,1003.88
2016-06-06T14:50:18.379Z,1003.84
2016-06-06T14:51:18.412Z,1003.8
2016-06-06T14:52:18.431Z,1003.78
2016-06-06T14:53:18.450Z,1003.77
2016-06-06T14:54:18.483Z,1003.79
2016-06-06T14:55:18.502Z,1003.72
2016-06-06T14:56:18.536Z,1003.76
2016-06-06T14:57:18.554Z,1003.72
2016-06-06T14:58:18.588Z,1003.78
2016-06-06T14:59:18.607Z,1003.79
2016-06-06T15:00:18.641Z,1003.79
2016-06-06T15:01:18.659Z,1003.78
2016-06-06T15:02:18.692Z,1003.76
2016-06-06T15:03:18.727Z,1003.71
2016-06-06T15:04:18.745Z,1003.76
2016-06-06T15:05:18.763Z,1003.78
2016-06-06T15:06:18.797Z,1003.75
2016-06-06T15:07:18.816Z,1003.74
2016-06-06T15:08:18.849Z,1003.76
2016-06-06T15:09:18.869Z,1003.74
2016-06-06T15:10:18.902Z,1003.76
2016-06-06T15:11:18.920Z,1003.67
2016-06-06T15:12:18.954Z,1003.72
2016-06-06T15:13:18.972Z,1003.74
2016-06-06T15:14:19.053Z,1003.72
2016-06-06T15:15:19.024Z,1003.68
2016-06-06T15:16:19.059Z,1003.65
2016-06-06T15:17:19.076Z,1003.67
2016-06-06T15:18:19.095Z,1003.64
2016-06-06T15:19:19.129Z,1003.63
2016-06-06T15:20:19.148Z,1003.71
2016-06-06T15:21:19.182Z,1003.67
2016-06-06T15:22:19.215Z,1003.64
2016-06-06T15:23:19.234Z,1003.73
2016-06-06T15:24:19.268Z,1003.7
2016-06-06T15:25:19.287Z,1003.68
2016-06-06T15:26:19.304Z,1003.7
2016-06-06T15:27:19.338Z,1003.73
2016-06-06T15:28:19.356Z,1003.69
2016-06-06T15:29:29.284Z,1003.68
2016-06-06T15:30:19.518Z,1003.7
2016-06-06T15:31:19.428Z,1003.67
2016-06-06T15:32:19.461Z,1003.7
2016-06-06T15:33:19.480Z,1003.7
2016-06-06T15:34:19.497Z,1003.68
2016-06-06T15:35:19.532Z,1003.71
2016-06-06T15:36:19.566Z,1003.73
2016-06-06T15:37:19.584Z,1003.73
2016-06-06T15:38:19.602Z,1003.75
2016-06-06T15:39:19.636Z,1003.73
2016-06-06T15:40:19.655Z,1003.7
2016-06-06T15:41:19.688Z,1003.72
2016-06-06T15:42:19.707Z,1003.75
2016-06-06T15:43:19.724Z,1003.72
2016-06-06T15:44:20.118Z,1003.7
2016-06-06T15:45:19.808Z,1003.73
2016-06-06T15:46:19.811Z,1003.72
2016-06-06T15:47:19.830Z,1003.68
2016-06-06T15:48:19.863Z,1003.67
2016-06-06T15:49:19.882Z,1003.67
2016-06-06T15:50:19.916Z,1003.67
2016-06-06T15:51:19.935Z,1003.65
2016-06-06T15:52:19.952Z,1003.62
2016-06-06T15:53:19.987Z,1003.58
2016-06-06T15:54:20.004Z,1003.65
2016-06-06T15:55:20.039Z,1003.61
2016-06-06T15:56:20.057Z,1003.64
2016-06-06T15:57:20.090Z,1003.59
2016-06-06T15:58:20.109Z,1003.61
2016-06-06T15:59:20.128Z,1003.63
2016-06-06T16:00:20.162Z,1003.62
2016-06-06T16:01:20.195Z,1003.68
2016-06-06T16:02:20.214Z,1003.63
2016-06-06T16:03:20.232Z,1003.63
2016-06-06T16:04:20.266Z,1003.65
2016-06-06T16:05:20.284Z,1003.67
2016-06-06T16:06:20.319Z,1003.64
2016-06-06T16:07:20.336Z,1003.67
2016-06-06T16:08:20.370Z,1003.68
2016-06-06T16:09:20.389Z,1003.71
2016-06-06T16:10:20.408Z,1003.74
2016-06-06T16:11:20.441Z,1003.7
2016-06-06T16:12:20.460Z,1003.71
2016-06-06T16:13:20.478Z,1003.7
2016-06-06T16:14:20.544Z,1003.73
2016-06-06T16:15:20.546Z,1003.69
2016-06-06T16:16:20.564Z,1003.73
2016-06-06T16:17:20.582Z,1003.73
2016-06-06T16:18:20.616Z,1003.72
2016-06-06T16:20:20.669Z,1003.66
2016-06-06T16:21:20.687Z,1003.68
2016-06-06T16:22:20.721Z,1003.71
2016-06-06T16:23:20.740Z,1003.76
2016-06-06T16:24:20.757Z,1003.75
2016-06-06T16:25:20.791Z,1003.8
2016-06-06T16:26:20.810Z,1003.79
2016-06-06T16:27:20.843Z,1003.82
2016-06-06T16:28:20.862Z,1003.83
2016-06-06T16:29:21.302Z,1003.89
2016-06-06T16:30:21.617Z,1003.86
2016-06-06T16:31:20.932Z,1003.91
2016-06-06T16:32:20.967Z,1003.92
2016-06-06T16:34:21.019Z,1003.99
2016-06-06T16:35:21.037Z,1003.96
2016-06-06T16:36:21.071Z,1003.97
2016-06-06T16:37:21.089Z,1003.98
2016-06-06T16:38:21.123Z,1003.95
2016-06-06T16:39:21.142Z,1003.91
2016-06-06T16:40:21.175Z,1003.88
2016-06-06T16:41:21.194Z,1003.9
2016-06-06T16:42:21.228Z,1003.96
2016-06-06T16:43:21.251Z,1003.94
2016-06-06T16:44:21.290Z,1003.97
2016-06-06T16:45:21.313Z,1003.99
2016-06-06T16:46:21.352Z,1004.01
2016-06-06T16:47:21.375Z,1004.02
2016-06-06T16:48:21.396Z,1004.01
2016-06-06T16:49:21.431Z,1004.02
2016-06-06T16:50:21.466Z,1004
2016-06-06T16:51:21.486Z,1004.01
2016-06-06T16:52:21.506Z,1003.95
2016-06-06T16:53:21.541Z,1003.97
2016-06-06T16:54:21.560Z,1004.02
2016-06-06T16:55:21.595Z,1003.95
2016-06-06T16:56:21.614Z,1003.95
2016-06-06T16:57:21.649Z,1003.98
2016-06-06T16:58:21.667Z,1004
2016-06-06T16:59:21.685Z,1004.02
2016-06-06T17:00:21.720Z,1003.99
2016-06-06T17:01:21.755Z,1004.03
2016-06-06T17:02:21.773Z,1004
2016-06-06T17:03:21.792Z,1003.99
2016-06-06T17:04:21.825Z,1003.95
2016-06-06T17:05:21.844Z,1003.9
2016-06-06T17:06:21.877Z,1003.88
2016-06-06T17:07:21.897Z,1003.91
2016-06-06T17:08:21.914Z,1003.85
2016-06-06T17:09:21.948Z,1003.86
2016-06-06T17:10:21.967Z,1003.83
2016-06-06T17:11:22.000Z,1003.84
2016-06-06T17:12:22.019Z,1003.83
2016-06-06T17:13:22.053Z,1003.84
2016-06-06T17:14:22.071Z,1003.84
2016-06-06T17:15:22.308Z,1003.85
2016-06-06T17:16:22.124Z,1003.84
2016-06-06T17:17:22.141Z,1003.82
2016-06-06T17:18:22.176Z,1003.8
2016-06-06T17:19:22.194Z,1003.83
2016-06-06T17:20:22.227Z,1003.84
2016-06-06T17:21:22.246Z,1003.82
2016-06-06T17:22:22.265Z,1003.82
2016-06-06T17:23:22.299Z,1003.82
2016-06-06T17:24:22.317Z,1003.85
2016-06-06T17:25:22.351Z,1003.85
2016-06-06T17:26:22.368Z,1003.83
2016-06-06T17:27:22.387Z,1003.87
2016-06-06T17:28:22.421Z,1003.86
2016-06-06T17:29:22.439Z,1003.86
2016-06-06T17:30:22.474Z,1003.83
2016-06-06T17:31:22.492Z,1003.8
2016-06-06T17:32:22.509Z,1003.83
2016-06-06T17:33:22.545Z,1003.87
2016-06-06T17:34:22.562Z,1003.87
2016-06-06T17:35:22.596Z,1003.91
2016-06-06T17:36:22.614Z,1003.87
2016-06-06T17:37:22.648Z,1003.9
2016-06-06T17:38:22.666Z,1003.84
2016-06-06T17:39:22.686Z,1003.84
2016-06-06T17:40:22.719Z,1003.83
2016-06-06T17:41:22.737Z,1003.88
2016-06-06T17:42:22.772Z,1003.88
2016-06-06T17:43:22.789Z,1003.86
2016-06-06T17:44:22.808Z,1003.88
2016-06-06T17:45:22.841Z,1003.84
2016-06-06T17:46:22.861Z,1003.84
2016-06-06T17:47:22.894Z,1003.83
2016-06-06T17:48:22.912Z,1003.81
2016-06-06T17:49:22.931Z,1003.8
2016-06-06T17:50:22.965Z,1003.82
2016-06-06T17:51:22.982Z,1003.84
2016-06-06T17:52:23.017Z,1003.81
2016-06-06T17:53:23.035Z,1003.8
2016-06-06T17:54:23.054Z,1003.81
2016-06-06T17:55:23.087Z,1003.81
2016-06-06T17:56:23.106Z,1003.84
2016-06-06T17:57:23.140Z,1003.81
2016-06-06T17:58:23.158Z,1003.83
2016-06-06T17:59:23.176Z,1003.85
2016-06-06T18:00:23.210Z,1003.86
2016-06-06T18:01:23.229Z,1003.89
2016-06-06T18:02:23.247Z,1003.86
2016-06-06T18:03:23.312Z,1003.83
2016-06-06T18:04:23.300Z,1003.82
2016-06-06T18:05:23.333Z,1003.82
2016-06-06T18:06:23.351Z,1003.77
2016-06-06T18:07:23.386Z,1003.79
2016-06-06T18:08:23.403Z,1003.79
2016-06-06T18:09:23.422Z,1003.78
2016-06-06T18:10:23.441Z,1003.78
2016-06-06T18:11:23.474Z,1003.8
2016-06-06T18:12:23.492Z,1003.82
2016-06-06T18:13:23.527Z,1003.85
2016-06-06T18:14:23.545Z,1003.85
2016-06-06T18:15:23.625Z,1003.9
2016-06-06T18:16:23.597Z,1003.91
2016-06-06T18:17:23.631Z,1003.95
2016-06-06T18:18:23.649Z,1003.98
2016-06-06T18:19:23.668Z,1003.96
2016-06-06T18:20:23.686Z,1004.02
2016-06-06T18:21:23.705Z,1004.01
2016-06-06T18:22:23.738Z,1004.05
2016-06-06T18:23:23.772Z,1004.03
2016-06-06T18:24:23.790Z,1004.02
2016-06-06T18:25:23.810Z,1004.06
2016-06-06T18:26:23.842Z,1004.06
2016-06-06T18:27:23.861Z,1004.05
2016-06-06T18:28:23.879Z,1004.07
2016-06-06T18:29:24.304Z,1004.07
2016-06-06T18:30:23.931Z,1004.09
2016-06-06T18:31:23.951Z,1004.1
2016-06-06T18:32:23.984Z,1004.13
2016-06-06T18:33:24.002Z,1004.14
2016-06-06T18:34:24.036Z,1004.09
2016-06-06T18:35:24.054Z,1004.15
2016-06-06T18:36:24.073Z,1004.16
2016-06-06T18:37:24.106Z,1004.17
2016-06-06T18:38:24.125Z,1004.13
2016-06-06T18:39:24.159Z,1004.17
2016-06-06T18:40:24.177Z,1004.16
2016-06-06T18:41:24.195Z,1004.18
2016-06-06T18:42:24.230Z,1004.16
2016-06-06T18:43:24.247Z,1004.12
2016-06-06T18:44:24.267Z,1004.15
2016-06-06T18:45:24.488Z,1004.13
2016-06-06T18:46:24.319Z,1004.13
2016-06-06T18:47:24.352Z,1004.14
2016-06-06T18:48:24.386Z,1004.15
2016-06-06T18:49:24.389Z,1004.16
2016-06-06T18:50:24.423Z,1004.18
2016-06-06T18:51:24.441Z,1004.18
2016-06-06T18:52:24.460Z,1004.17
2016-06-06T18:53:24.494Z,1004.14
2016-06-06T18:54:24.527Z,1004.17
2016-06-06T18:55:24.545Z,1004.19
2016-06-06T18:56:24.565Z,1004.2
2016-06-06T18:57:24.582Z,1004.18
2016-06-06T18:58:24.616Z,1004.19
2016-06-06T18:59:24.729Z,1004.18
2016-06-06T19:00:25.293Z,1004.2
2016-06-06T19:01:24.686Z,1004.2
2016-06-06T19:02:24.705Z,1004.22
2016-06-06T19:03:24.739Z,1004.2
2016-06-06T19:04:24.757Z,1004.24
2016-06-06T19:05:24.775Z,1004.24
2016-06-06T19:06:24.809Z,1004.26
2016-06-06T19:07:24.828Z,1004.27
2016-06-06T19:08:24.847Z,1004.26
2016-06-06T19:09:24.880Z,1004.28
2016-06-06T19:10:24.898Z,1004.27
2016-06-06T19:11:24.917Z,1004.31
2016-06-06T19:12:24.936Z,1004.31
2016-06-06T19:13:24.969Z,1004.29
2016-06-06T19:14:25.003Z,1004.3
2016-06-06T19:15:25.021Z,1004.33
2016-06-06T19:16:26.040Z,1004.31
2016-06-06T19:17:25.058Z,1004.31
2016-06-06T19:18:25.092Z,1004.31
2016-06-06T19:19:25.110Z,1004.3
2016-06-06T19:20:25.129Z,1004.34
2016-06-06T19:21:25.163Z,1004.33
2016-06-06T19:22:25.181Z,1004.36
2016-06-06T19:23:25.199Z,1004.35
2016-06-06T19:24:25.233Z,1004.36
2016-06-06T19:25:25.251Z,1004.42
2016-06-06T19:26:25.270Z,1004.42
2016-06-06T19:27:25.288Z,1004.4
2016-06-06T19:28:25.321Z,1004.41
2016-06-06T19:29:25.340Z,1004.41
2016-06-06T19:30:25.374Z,1004.38
2016-06-06T19:31:25.393Z,1004.44
2016-06-06T19:32:25.411Z,1004.41
2016-06-06T19:33:25.429Z,1004.4
2016-06-06T19:34:26.104Z,1004.44
2016-06-06T19:35:25.481Z,1004.45
2016-06-06T19:36:25.515Z,1004.43
2016-06-06T19:37:25.534Z,1004.5
2016-06-06T19:38:25.553Z,1004.53
2016-06-06T19:39:25.570Z,1004.53
2016-06-06T19:40:25.604Z,1004.5
2016-06-06T19:41:25.623Z,1004.53
2016-06-06T19:42:25.641Z,1004.55
2016-06-06T19:43:25.675Z,1004.5
2016-06-06T19:44:25.709Z,1004.55
2016-06-06T19:45:25.711Z,1004.54
2016-06-06T19:46:25.745Z,1004.56
2016-06-06T19:47:25.764Z,1004.58
2016-06-06T19:48:26.235Z,1004.61
2016-06-06T19:49:25.800Z,1004.65
2016-06-06T19:50:25.834Z,1004.62
2016-06-06T19:51:25.852Z,1004.61
2016-06-06T19:52:25.871Z,1004.63
2016-06-06T19:53:25.905Z,1004.65
2016-06-06T19:54:25.923Z,1004.62
2016-06-06T19:55:25.941Z,1004.62
2016-06-06T19:56:25.976Z,1004.61
2016-06-06T19:57:25.994Z,1004.67
2016-06-06T19:58:26.012Z,1004.66
2016-06-06T19:59:26.030Z,1004.66
2016-06-06T20:00:26.064Z,1004.68
2016-06-06T20:01:26.082Z,1004.68
2016-06-06T20:02:26.101Z,1004.66
2016-06-06T20:03:26.119Z,1004.67
2016-06-06T20:04:26.153Z,1004.67
2016-06-06T20:05:26.172Z,1004.69
2016-06-06T20:06:26.189Z,1004.7
2016-06-06T20:07:26.209Z,1004.72
2016-06-06T20:08:26.242Z,1004.71
2016-06-06T20:09:26.261Z,1004.72
2016-06-06T20:10:26.278Z,1004.71
2016-06-06T20:11:26.312Z,1004.72
2016-06-06T20:12:26.331Z,1004.72
2016-06-06T20:13:26.349Z,1004.73
2016-06-06T20:14:26.367Z,1004.73
2016-06-06T20:15:26.402Z,1004.71
2016-06-06T20:16:26.419Z,1004.68
2016-06-06T20:17:26.453Z,1004.71
2016-06-06T20:18:26.472Z,1004.75
2016-06-06T20:19:26.491Z,1004.73
2016-06-06T20:20:26.508Z,1004.72
2016-06-06T20:21:26.528Z,1004.75
2016-06-06T20:22:26.561Z,1004.78
2016-06-06T20:23:26.579Z,1004.76
2016-06-06T20:24:26.597Z,1004.74
2016-06-06T20:25:26.616Z,1004.76
2016-06-06T20:26:26.649Z,1004.72
2016-06-06T20:27:26.684Z,1004.7
2016-06-06T20:28:26.687Z,1004.69
2016-06-06T20:29:26.705Z,1004.69
2016-06-06T20:30:26.738Z,1004.69
2016-06-06T20:31:26.757Z,1004.69
2016-06-06T20:32:26.776Z,1004.7
2016-06-06T20:33:26.810Z,1004.71
2016-06-06T20:34:26.829Z,1004.73
2016-06-06T20:35:27.456Z,1004.7
2016-06-06T20:36:26.864Z,1004.71
2016-06-06T20:37:26.882Z,1004.72
2016-06-06T20:38:26.917Z,1004.73
2016-06-06T20:39:26.934Z,1004.74
2016-06-06T20:40:26.953Z,1004.8
2016-06-06T20:41:26.972Z,1004.78
2016-06-06T20:42:27.006Z,1004.76
2016-06-06T20:43:27.039Z,1004.78
2016-06-06T20:44:27.042Z,1004.75
2016-06-06T20:45:27.075Z,1004.72
2016-06-06T20:46:27.094Z,1004.71
2016-06-06T20:47:27.113Z,1004.71
2016-06-06T20:48:27.131Z,1004.72
2016-06-06T20:49:27.164Z,1004.71
2016-06-06T20:50:27.355Z,1004.67
2016-06-06T20:51:27.201Z,1004.71
2016-06-06T20:52:27.235Z,1004.71
2016-06-06T20:53:27.238Z,1004.67